sensor_id;sensor_type;location;lat;lon;timestamp;P1;durP1;ratioP1;P2;durP2;ratioP2
22752;SDS011;11543;43.144;24.684;2023-07-29T00:00:42;2.53;;;1.70;;
22752;SDS011;11543;43.144;24.684;2023-07-29T00:03:08;2.90;;;1.60;;
22752;SDS011;11543;43.144;24.684;2023-07-29T00:05:34;2.00;;;1.33;;
22752;SDS011;11543;43.144;24.684;2023-07-29T00:07:59;4.53;;;1.58;;
22752;SDS011;11543;43.144;24.684;2023-07-29T00:10:25;2.63;;;1.55;;
22752;SDS011;11543;43.144;24.684;2023-07-29T00:12:51;4.72;;;1.90;;
22752;SDS011;11543;43.144;24.684;2023-07-29T00:15:16;6.47;;;2.30;;
22752;SDS011;11543;43.144;24.684;2023-07-29T00:17:42;5.40;;;1.77;;
22752;SDS011;11543;43.144;24.684;2023-07-29T00:20:07;4.20;;;1.50;;
22752;SDS011;11543;43.144;24.684;2023-07-29T00:22:33;2.67;;;1.60;;
22752;SDS011;11543;43.144;24.684;2023-07-29T00:24:59;3.55;;;1.48;;
22752;SDS011;11543;43.144;24.684;2023-07-29T00:27:24;2.33;;;1.67;;
22752;SDS011;11543;43.144;24.684;2023-07-29T00:29:50;3.45;;;1.70;;
22752;SDS011;11543;43.144;24.684;2023-07-29T00:32:16;4.25;;;1.40;;
22752;SDS011;11543;43.144;24.684;2023-07-29T00:34:41;2.33;;;1.50;;
22752;SDS011;11543;43.144;24.684;2023-07-29T00:37:07;3.30;;;1.80;;
22752;SDS011;11543;43.144;24.684;2023-07-29T00:39:32;2.67;;;1.60;;
22752;SDS011;11543;43.144;24.684;2023-07-29T00:41:58;2.58;;;1.63;;
22752;SDS011;11543;43.144;24.684;2023-07-29T00:44:24;4.28;;;1.60;;
22752;SDS011;11543;43.144;24.684;2023-07-29T00:46:50;2.72;;;1.80;;
22752;SDS011;11543;43.144;24.684;2023-07-29T00:49:17;5.22;;;1.33;;
22752;SDS011;11543;43.144;24.684;2023-07-29T00:51:44;2.92;;;1.40;;
22752;SDS011;11543;43.144;24.684;2023-07-29T00:54:10;2.25;;;1.52;;
22752;SDS011;11543;43.144;24.684;2023-07-29T00:56:35;2.25;;;1.38;;
22752;SDS011;11543;43.144;24.684;2023-07-29T00:59:02;2.33;;;1.63;;
22752;SDS011;11543;43.144;24.684;2023-07-29T01:01:28;2.30;;;1.70;;
22752;SDS011;11543;43.144;24.684;2023-07-29T01:03:54;2.05;;;1.30;;
22752;SDS011;11543;43.144;24.684;2023-07-29T01:09:33;5.32;;;1.70;;
22752;SDS011;11543;43.144;24.684;2023-07-29T01:12:47;2.15;;;1.20;;
22752;SDS011;11543;43.144;24.684;2023-07-29T01:15:24;3.03;;;1.50;;
22752;SDS011;11543;43.144;24.684;2023-07-29T01:17:55;3.33;;;1.65;;
22752;SDS011;11543;43.144;24.684;2023-07-29T01:20:25;2.35;;;1.50;;
22752;SDS011;11543;43.144;24.684;2023-07-29T01:22:51;4.85;;;1.77;;
22752;SDS011;11543;43.144;24.684;2023-07-29T01:25:17;2.33;;;1.48;;
22752;SDS011;11543;43.144;24.684;2023-07-29T01:27:44;2.60;;;1.73;;
22752;SDS011;11543;43.144;24.684;2023-07-29T01:30:11;2.72;;;1.52;;
22752;SDS011;11543;43.144;24.684;2023-07-29T01:32:39;2.92;;;1.52;;
22752;SDS011;11543;43.144;24.684;2023-07-29T01:35:26;3.72;;;1.83;;
22752;SDS011;11543;43.144;24.684;2023-07-29T01:37:58;2.92;;;1.48;;
22752;SDS011;11543;43.144;24.684;2023-07-29T01:40:30;2.72;;;1.70;;
22752;SDS011;11543;43.144;24.684;2023-07-29T01:42:57;2.58;;;1.60;;
22752;SDS011;11543;43.144;24.684;2023-07-29T01:45:23;2.15;;;1.58;;
22752;SDS011;11543;43.144;24.684;2023-07-29T01:47:50;3.10;;;1.67;;
22752;SDS011;11543;43.144;24.684;2023-07-29T01:50:16;2.60;;;1.65;;
22752;SDS011;11543;43.144;24.684;2023-07-29T01:52:42;3.22;;;1.95;;
22752;SDS011;11543;43.144;24.684;2023-07-29T01:55:07;3.05;;;1.63;;
22752;SDS011;11543;43.144;24.684;2023-07-29T01:57:33;3.38;;;1.80;;
22752;SDS011;11543;43.144;24.684;2023-07-29T01:59:59;2.15;;;1.60;;
22752;SDS011;11543;43.144;24.684;2023-07-29T02:02:24;6.13;;;1.65;;
22752;SDS011;11543;43.144;24.684;2023-07-29T02:04:50;2.17;;;1.60;;
22752;SDS011;11543;43.144;24.684;2023-07-29T02:07:17;3.17;;;1.50;;
22752;SDS011;11543;43.144;24.684;2023-07-29T02:09:44;4.03;;;1.63;;
22752;SDS011;11543;43.144;24.684;2023-07-29T02:12:09;2.60;;;1.65;;
22752;SDS011;11543;43.144;24.684;2023-07-29T02:14:35;2.15;;;1.60;;
22752;SDS011;11543;43.144;24.684;2023-07-29T02:17:00;2.53;;;1.60;;
22752;SDS011;11543;43.144;24.684;2023-07-29T02:19:26;2.22;;;1.70;;
22752;SDS011;11543;43.144;24.684;2023-07-29T02:21:51;3.08;;;1.60;;
22752;SDS011;11543;43.144;24.684;2023-07-29T02:24:17;2.70;;;1.80;;
22752;SDS011;11543;43.144;24.684;2023-07-29T02:26:42;2.72;;;2.00;;
22752;SDS011;11543;43.144;24.684;2023-07-29T02:29:08;2.75;;;1.60;;
22752;SDS011;11543;43.144;24.684;2023-07-29T02:31:33;3.53;;;1.60;;
22752;SDS011;11543;43.144;24.684;2023-07-29T02:34:00;4.05;;;1.77;;
22752;SDS011;11543;43.144;24.684;2023-07-29T02:36:25;2.28;;;1.70;;
22752;SDS011;11543;43.144;24.684;2023-07-29T02:38:51;4.95;;;1.70;;
22752;SDS011;11543;43.144;24.684;2023-07-29T02:41:16;3.97;;;1.80;;
22752;SDS011;11543;43.144;24.684;2023-07-29T02:43:48;2.00;;;1.58;;
22752;SDS011;11543;43.144;24.684;2023-07-29T02:46:14;3.13;;;1.85;;
22752;SDS011;11543;43.144;24.684;2023-07-29T02:48:40;3.45;;;1.80;;
22752;SDS011;11543;43.144;24.684;2023-07-29T02:51:05;2.83;;;1.70;;
22752;SDS011;11543;43.144;24.684;2023-07-29T02:53:31;2.15;;;1.73;;
22752;SDS011;11543;43.144;24.684;2023-07-29T02:55:56;2.70;;;1.60;;
22752;SDS011;11543;43.144;24.684;2023-07-29T02:58:22;2.75;;;1.95;;
22752;SDS011;11543;43.144;24.684;2023-07-29T03:00:47;3.35;;;1.80;;
22752;SDS011;11543;43.144;24.684;2023-07-29T03:03:13;2.58;;;1.70;;
22752;SDS011;11543;43.144;24.684;2023-07-29T03:05:39;3.17;;;1.80;;
22752;SDS011;11543;43.144;24.684;2023-07-29T03:08:05;3.03;;;1.60;;
22752;SDS011;11543;43.144;24.684;2023-07-29T03:10:30;4.50;;;1.50;;
22752;SDS011;11543;43.144;24.684;2023-07-29T03:12:56;3.25;;;1.88;;
22752;SDS011;11543;43.144;24.684;2023-07-29T03:15:25;4.00;;;1.67;;
22752;SDS011;11543;43.144;24.684;2023-07-29T03:17:51;5.45;;;1.50;;
22752;SDS011;11543;43.144;24.684;2023-07-29T03:20:17;1.88;;;1.40;;
22752;SDS011;11543;43.144;24.684;2023-07-29T03:22:43;2.88;;;1.85;;
22752;SDS011;11543;43.144;24.684;2023-07-29T03:25:09;3.03;;;1.63;;
22752;SDS011;11543;43.144;24.684;2023-07-29T03:27:34;6.75;;;1.80;;
22752;SDS011;11543;43.144;24.684;2023-07-29T03:30:02;3.92;;;1.70;;
22752;SDS011;11543;43.144;24.684;2023-07-29T03:32:28;9.02;;;1.92;;
22752;SDS011;11543;43.144;24.684;2023-07-29T03:34:54;2.50;;;1.70;;
22752;SDS011;11543;43.144;24.684;2023-07-29T03:37:19;5.38;;;1.90;;
22752;SDS011;11543;43.144;24.684;2023-07-29T03:39:46;3.30;;;1.70;;
22752;SDS011;11543;43.144;24.684;2023-07-29T03:42:12;3.58;;;1.80;;
22752;SDS011;11543;43.144;24.684;2023-07-29T03:44:38;2.70;;;1.80;;
22752;SDS011;11543;43.144;24.684;2023-07-29T03:47:04;2.45;;;1.83;;
22752;SDS011;11543;43.144;24.684;2023-07-29T03:49:31;4.63;;;2.10;;
22752;SDS011;11543;43.144;24.684;2023-07-29T03:51:56;2.75;;;1.88;;
22752;SDS011;11543;43.144;24.684;2023-07-29T03:54:22;3.00;;;1.77;;
22752;SDS011;11543;43.144;24.684;2023-07-29T03:56:47;2.20;;;1.60;;
22752;SDS011;11543;43.144;24.684;2023-07-29T03:59:13;2.75;;;1.67;;
22752;SDS011;11543;43.144;24.684;2023-07-29T04:01:39;4.82;;;1.50;;
22752;SDS011;11543;43.144;24.684;2023-07-29T04:04:04;2.63;;;1.50;;
22752;SDS011;11543;43.144;24.684;2023-07-29T04:06:30;4.80;;;1.90;;
22752;SDS011;11543;43.144;24.684;2023-07-29T04:08:55;2.85;;;1.90;;
22752;SDS011;11543;43.144;24.684;2023-07-29T04:11:21;2.13;;;1.50;;
22752;SDS011;11543;43.144;24.684;2023-07-29T04:13:47;4.03;;;2.00;;
22752;SDS011;11543;43.144;24.684;2023-07-29T04:16:13;3.75;;;1.83;;
22752;SDS011;11543;43.144;24.684;2023-07-29T04:18:38;15.35;;;2.67;;
22752;SDS011;11543;43.144;24.684;2023-07-29T04:21:04;9.23;;;2.00;;
22752;SDS011;11543;43.144;24.684;2023-07-29T04:23:29;9.98;;;2.00;;
22752;SDS011;11543;43.144;24.684;2023-07-29T04:25:55;11.15;;;2.30;;
22752;SDS011;11543;43.144;24.684;2023-07-29T04:28:20;7.25;;;2.00;;
22752;SDS011;11543;43.144;24.684;2023-07-29T04:30:45;5.50;;;1.90;;
22752;SDS011;11543;43.144;24.684;2023-07-29T04:33:11;8.80;;;2.20;;
22752;SDS011;11543;43.144;24.684;2023-07-29T04:35:36;4.18;;;1.88;;
22752;SDS011;11543;43.144;24.684;2023-07-29T04:38:02;3.10;;;1.83;;
22752;SDS011;11543;43.144;24.684;2023-07-29T04:40:27;2.88;;;1.70;;
22752;SDS011;11543;43.144;24.684;2023-07-29T04:42:53;4.57;;;2.25;;
22752;SDS011;11543;43.144;24.684;2023-07-29T04:45:18;4.97;;;2.13;;
22752;SDS011;11543;43.144;24.684;2023-07-29T04:47:44;2.92;;;1.85;;
22752;SDS011;11543;43.144;24.684;2023-07-29T04:50:09;2.50;;;1.70;;
22752;SDS011;11543;43.144;24.684;2023-07-29T04:52:35;2.22;;;1.65;;
22752;SDS011;11543;43.144;24.684;2023-07-29T04:55:00;3.63;;;1.85;;
22752;SDS011;11543;43.144;24.684;2023-07-29T04:57:26;4.22;;;2.03;;
22752;SDS011;11543;43.144;24.684;2023-07-29T04:59:51;3.20;;;2.20;;
22752;SDS011;11543;43.144;24.684;2023-07-29T05:02:17;5.28;;;2.25;;
22752;SDS011;11543;43.144;24.684;2023-07-29T05:04:42;5.38;;;2.22;;
22752;SDS011;11543;43.144;24.684;2023-07-29T05:07:08;3.92;;;2.15;;
22752;SDS011;11543;43.144;24.684;2023-07-29T05:09:34;3.38;;;2.20;;
22752;SDS011;11543;43.144;24.684;2023-07-29T05:11:59;5.32;;;2.13;;
22752;SDS011;11543;43.144;24.684;2023-07-29T05:14:25;4.63;;;1.90;;
22752;SDS011;11543;43.144;24.684;2023-07-29T05:16:51;8.30;;;2.40;;
22752;SDS011;11543;43.144;24.684;2023-07-29T05:19:16;5.75;;;3.90;;
22752;SDS011;11543;43.144;24.684;2023-07-29T05:21:42;7.32;;;4.90;;
22752;SDS011;11543;43.144;24.684;2023-07-29T05:24:07;6.32;;;4.55;;
22752;SDS011;11543;43.144;24.684;2023-07-29T05:26:33;7.57;;;4.18;;
22752;SDS011;11543;43.144;24.684;2023-07-29T05:28:58;6.07;;;3.70;;
22752;SDS011;11543;43.144;24.684;2023-07-29T05:31:24;4.65;;;3.25;;
22752;SDS011;11543;43.144;24.684;2023-07-29T05:33:51;3.88;;;2.45;;
22752;SDS011;11543;43.144;24.684;2023-07-29T05:36:16;5.53;;;2.40;;
22752;SDS011;11543;43.144;24.684;2023-07-29T05:38:42;3.85;;;2.78;;
22752;SDS011;11543;43.144;24.684;2023-07-29T05:41:07;4.63;;;2.67;;
22752;SDS011;11543;43.144;24.684;2023-07-29T05:43:33;3.13;;;2.70;;
22752;SDS011;11543;43.144;24.684;2023-07-29T05:45:58;5.30;;;3.45;;
22752;SDS011;11543;43.144;24.684;2023-07-29T05:48:24;2.70;;;2.20;;
22752;SDS011;11543;43.144;24.684;2023-07-29T05:50:49;3.95;;;2.38;;
22752;SDS011;11543;43.144;24.684;2023-07-29T05:53:15;3.63;;;2.33;;
22752;SDS011;11543;43.144;24.684;2023-07-29T05:55:40;2.50;;;1.83;;
22752;SDS011;11543;43.144;24.684;2023-07-29T05:58:06;3.75;;;2.10;;
22752;SDS011;11543;43.144;24.684;2023-07-29T06:00:31;3.83;;;1.73;;
22752;SDS011;11543;43.144;24.684;2023-07-29T06:02:57;4.30;;;2.13;;
22752;SDS011;11543;43.144;24.684;2023-07-29T06:05:22;3.97;;;1.73;;
22752;SDS011;11543;43.144;24.684;2023-07-29T06:07:48;3.13;;;2.08;;
22752;SDS011;11543;43.144;24.684;2023-07-29T06:10:14;2.47;;;1.63;;
22752;SDS011;11543;43.144;24.684;2023-07-29T06:12:43;4.03;;;1.88;;
22752;SDS011;11543;43.144;24.684;2023-07-29T06:15:09;5.43;;;2.33;;
22752;SDS011;11543;43.144;24.684;2023-07-29T06:17:37;5.20;;;1.80;;
22752;SDS011;11543;43.144;24.684;2023-07-29T06:20:03;3.05;;;1.85;;
22752;SDS011;11543;43.144;24.684;2023-07-29T06:22:28;5.97;;;1.95;;
22752;SDS011;11543;43.144;24.684;2023-07-29T06:24:54;3.53;;;1.77;;
22752;SDS011;11543;43.144;24.684;2023-07-29T06:27:19;3.85;;;1.90;;
22752;SDS011;11543;43.144;24.684;2023-07-29T06:29:45;6.85;;;1.77;;
22752;SDS011;11543;43.144;24.684;2023-07-29T06:32:10;2.75;;;2.00;;
22752;SDS011;11543;43.144;24.684;2023-07-29T06:34:36;4.47;;;2.08;;
22752;SDS011;11543;43.144;24.684;2023-07-29T06:37:01;3.00;;;1.85;;
22752;SDS011;11543;43.144;24.684;2023-07-29T06:39:27;5.78;;;2.20;;
22752;SDS011;11543;43.144;24.684;2023-07-29T06:41:52;3.97;;;1.75;;
22752;SDS011;11543;43.144;24.684;2023-07-29T06:44:18;5.47;;;1.70;;
22752;SDS011;11543;43.144;24.684;2023-07-29T06:46:43;5.18;;;1.90;;
22752;SDS011;11543;43.144;24.684;2023-07-29T06:49:09;2.53;;;1.80;;
22752;SDS011;11543;43.144;24.684;2023-07-29T06:51:34;4.63;;;1.77;;
22752;SDS011;11543;43.144;24.684;2023-07-29T06:54:03;3.78;;;1.67;;
22752;SDS011;11543;43.144;24.684;2023-07-29T06:56:29;4.72;;;1.50;;
22752;SDS011;11543;43.144;24.684;2023-07-29T06:58:54;4.82;;;2.17;;
22752;SDS011;11543;43.144;24.684;2023-07-29T07:01:20;4.80;;;1.70;;
22752;SDS011;11543;43.144;24.684;2023-07-29T07:03:45;5.22;;;2.13;;
22752;SDS011;11543;43.144;24.684;2023-07-29T07:06:11;10.55;;;5.00;;
22752;SDS011;11543;43.144;24.684;2023-07-29T07:08:36;8.77;;;5.07;;
22752;SDS011;11543;43.144;24.684;2023-07-29T07:11:02;10.43;;;5.57;;
22752;SDS011;11543;43.144;24.684;2023-07-29T07:13:27;6.35;;;3.85;;
22752;SDS011;11543;43.144;24.684;2023-07-29T07:15:56;8.45;;;3.92;;
22752;SDS011;11543;43.144;24.684;2023-07-29T07:18:22;5.25;;;3.33;;
22752;SDS011;11543;43.144;24.684;2023-07-29T07:20:51;3.90;;;2.70;;
22752;SDS011;11543;43.144;24.684;2023-07-29T07:23:17;5.32;;;1.67;;
22752;SDS011;11543;43.144;24.684;2023-07-29T07:25:43;2.78;;;1.88;;
22752;SDS011;11543;43.144;24.684;2023-07-29T07:28:09;3.20;;;1.83;;
22752;SDS011;11543;43.144;24.684;2023-07-29T07:30:35;2.22;;;1.80;;
22752;SDS011;11543;43.144;24.684;2023-07-29T07:33:00;2.40;;;1.45;;
22752;SDS011;11543;43.144;24.684;2023-07-29T07:35:26;3.10;;;1.42;;
22752;SDS011;11543;43.144;24.684;2023-07-29T07:37:52;6.40;;;1.55;;
22752;SDS011;11543;43.144;24.684;2023-07-29T07:40:17;2.97;;;1.70;;
22752;SDS011;11543;43.144;24.684;2023-07-29T07:42:43;3.47;;;2.17;;
22752;SDS011;11543;43.144;24.684;2023-07-29T07:45:09;5.22;;;2.70;;
22752;SDS011;11543;43.144;24.684;2023-07-29T07:47:34;7.88;;;3.30;;
22752;SDS011;11543;43.144;24.684;2023-07-29T07:50:00;2.67;;;1.75;;
22752;SDS011;11543;43.144;24.684;2023-07-29T07:52:25;2.60;;;1.40;;
22752;SDS011;11543;43.144;24.684;2023-07-29T07:54:54;2.67;;;1.60;;
22752;SDS011;11543;43.144;24.684;2023-07-29T07:57:20;2.00;;;1.42;;
22752;SDS011;11543;43.144;24.684;2023-07-29T07:59:46;3.83;;;1.45;;
22752;SDS011;11543;43.144;24.684;2023-07-29T08:02:12;1.75;;;1.30;;
22752;SDS011;11543;43.144;24.684;2023-07-29T08:04:38;1.95;;;1.10;;
22752;SDS011;11543;43.144;24.684;2023-07-29T08:07:03;4.13;;;1.17;;
22752;SDS011;11543;43.144;24.684;2023-07-29T08:09:29;2.72;;;1.40;;
22752;SDS011;11543;43.144;24.684;2023-07-29T08:11:54;2.47;;;1.50;;
22752;SDS011;11543;43.144;24.684;2023-07-29T08:14:20;4.57;;;1.30;;
22752;SDS011;11543;43.144;24.684;2023-07-29T08:16:45;3.10;;;1.30;;
22752;SDS011;11543;43.144;24.684;2023-07-29T08:19:11;1.92;;;1.40;;
22752;SDS011;11543;43.144;24.684;2023-07-29T08:21:36;2.80;;;1.30;;
22752;SDS011;11543;43.144;24.684;2023-07-29T08:24:02;3.13;;;1.50;;
22752;SDS011;11543;43.144;24.684;2023-07-29T08:26:28;3.55;;;1.30;;
22752;SDS011;11543;43.144;24.684;2023-07-29T08:28:54;4.28;;;1.30;;
22752;SDS011;11543;43.144;24.684;2023-07-29T08:31:20;4.43;;;1.20;;
22752;SDS011;11543;43.144;24.684;2023-07-29T08:33:45;4.90;;;1.27;;
22752;SDS011;11543;43.144;24.684;2023-07-29T08:36:11;3.67;;;1.30;;
22752;SDS011;11543;43.144;24.684;2023-07-29T08:38:36;2.20;;;1.50;;
22752;SDS011;11543;43.144;24.684;2023-07-29T08:48:59;2.40;;;1.20;;
22752;SDS011;11543;43.144;24.684;2023-07-29T08:51:27;5.10;;;1.42;;
22752;SDS011;11543;43.144;24.684;2023-07-29T08:53:52;2.05;;;1.20;;
22752;SDS011;11543;43.144;24.684;2023-07-29T08:56:18;2.20;;;1.25;;
22752;SDS011;11543;43.144;24.684;2023-07-29T08:58:44;1.73;;;1.10;;
22752;SDS011;11543;43.144;24.684;2023-07-29T09:01:11;4.50;;;1.20;;
22752;SDS011;11543;43.144;24.684;2023-07-29T09:03:37;1.73;;;1.17;;
22752;SDS011;11543;43.144;24.684;2023-07-29T09:06:05;4.20;;;1.27;;
22752;SDS011;11543;43.144;24.684;2023-07-29T09:08:33;2.83;;;1.27;;
22752;SDS011;11543;43.144;24.684;2023-07-29T09:10:59;2.05;;;1.20;;
22752;SDS011;11543;43.144;24.684;2023-07-29T09:13:26;2.38;;;1.30;;
22752;SDS011;11543;43.144;24.684;2023-07-29T09:15:55;2.55;;;1.20;;
22752;SDS011;11543;43.144;24.684;2023-07-29T09:20:50;2.42;;;1.23;;
22752;SDS011;11543;43.144;24.684;2023-07-29T09:23:17;3.40;;;1.50;;
22752;SDS011;11543;43.144;24.684;2023-07-29T09:25:43;2.55;;;1.23;;
22752;SDS011;11543;43.144;24.684;2023-07-29T09:28:13;2.47;;;1.30;;
22752;SDS011;11543;43.144;24.684;2023-07-29T09:30:40;2.03;;;1.30;;
22752;SDS011;11543;43.144;24.684;2023-07-29T09:33:08;1.88;;;1.27;;
22752;SDS011;11543;43.144;24.684;2023-07-29T09:35:35;3.00;;;1.02;;
22752;SDS011;11543;43.144;24.684;2023-07-29T09:38:02;2.60;;;1.13;;
22752;SDS011;11543;43.144;24.684;2023-07-29T09:40:33;1.48;;;1.02;;
22752;SDS011;11543;43.144;24.684;2023-07-29T09:43:03;3.63;;;3.05;;
22752;SDS011;11543;43.144;24.684;2023-07-29T09:45:29;1.48;;;1.02;;
22752;SDS011;11543;43.144;24.684;2023-07-29T09:47:57;2.28;;;1.00;;
22752;SDS011;11543;43.144;24.684;2023-07-29T09:50:26;2.80;;;1.25;;
22752;SDS011;11543;43.144;24.684;2023-07-29T09:52:53;2.40;;;0.90;;
22752;SDS011;11543;43.144;24.684;2023-07-29T09:55:21;7.35;;;3.70;;
22752;SDS011;11543;43.144;24.684;2023-07-29T09:57:48;3.97;;;2.75;;
22752;SDS011;11543;43.144;24.684;2023-07-29T10:00:19;2.45;;;1.58;;
22752;SDS011;11543;43.144;24.684;2023-07-29T10:02:44;2.10;;;1.40;;
22752;SDS011;11543;43.144;24.684;2023-07-29T10:05:11;3.97;;;1.27;;
22752;SDS011;11543;43.144;24.684;2023-07-29T10:07:39;2.58;;;1.40;;
22752;SDS011;11543;43.144;24.684;2023-07-29T10:10:05;2.25;;;1.45;;
22752;SDS011;11543;43.144;24.684;2023-07-29T10:12:33;2.45;;;1.25;;
22752;SDS011;11543;43.144;24.684;2023-07-29T10:15:00;3.15;;;1.08;;
22752;SDS011;11543;43.144;24.684;2023-07-29T10:17:27;1.92;;;1.13;;
22752;SDS011;11543;43.144;24.684;2023-07-29T10:19:55;2.15;;;1.17;;
22752;SDS011;11543;43.144;24.684;2023-07-29T10:22:22;2.88;;;1.00;;
22752;SDS011;11543;43.144;24.684;2023-07-29T10:24:54;4.00;;;1.40;;
22752;SDS011;11543;43.144;24.684;2023-07-29T10:27:24;5.07;;;1.10;;
22752;SDS011;11543;43.144;24.684;2023-07-29T10:29:52;4.55;;;1.10;;
22752;SDS011;11543;43.144;24.684;2023-07-29T10:32:21;2.83;;;1.20;;
22752;SDS011;11543;43.144;24.684;2023-07-29T10:34:50;2.17;;;1.33;;
22752;SDS011;11543;43.144;24.684;2023-07-29T10:37:16;3.22;;;1.15;;
22752;SDS011;11543;43.144;24.684;2023-07-29T10:39:51;2.00;;;1.10;;
22752;SDS011;11543;43.144;24.684;2023-07-29T10:42:19;2.10;;;1.30;;
22752;SDS011;11543;43.144;24.684;2023-07-29T10:44:48;2.67;;;1.60;;
22752;SDS011;11543;43.144;24.684;2023-07-29T10:49:42;4.03;;;1.40;;
22752;SDS011;11543;43.144;24.684;2023-07-29T10:52:08;4.80;;;1.02;;
22752;SDS011;11543;43.144;24.684;2023-07-29T10:54:46;2.42;;;1.23;;
22752;SDS011;11543;43.144;24.684;2023-07-29T10:57:24;3.95;;;1.08;;
22752;SDS011;11543;43.144;24.684;2023-07-29T10:59:57;3.83;;;1.50;;
22752;SDS011;11543;43.144;24.684;2023-07-29T11:02:28;1.60;;;1.00;;
22752;SDS011;11543;43.144;24.684;2023-07-29T11:05:05;3.15;;;1.20;;
22752;SDS011;11543;43.144;24.684;2023-07-29T11:07:32;1.67;;;1.02;;
22752;SDS011;11543;43.144;24.684;2023-07-29T11:10:12;3.50;;;1.08;;
22752;SDS011;11543;43.144;24.684;2023-07-29T11:12:48;1.02;;;0.90;;
22752;SDS011;11543;43.144;24.684;2023-07-29T11:15:24;1.73;;;1.00;;
22752;SDS011;11543;43.144;24.684;2023-07-29T11:18:00;2.47;;;0.90;;
22752;SDS011;11543;43.144;24.684;2023-07-29T11:20:27;2.28;;;1.00;;
22752;SDS011;11543;43.144;24.684;2023-07-29T11:22:54;1.42;;;0.90;;
22752;SDS011;11543;43.144;24.684;2023-07-29T11:25:22;2.78;;;0.70;;
22752;SDS011;11543;43.144;24.684;2023-07-29T11:27:51;1.45;;;0.70;;
22752;SDS011;11543;43.144;24.684;2023-07-29T11:30:18;1.38;;;0.90;;
22752;SDS011;11543;43.144;24.684;2023-07-29T11:32:44;3.40;;;1.00;;
22752;SDS011;11543;43.144;24.684;2023-07-29T11:35:12;3.25;;;1.00;;
22752;SDS011;11543;43.144;24.684;2023-07-29T11:37:43;4.20;;;0.80;;
22752;SDS011;11543;43.144;24.684;2023-07-29T11:40:13;2.55;;;0.70;;
22752;SDS011;11543;43.144;24.684;2023-07-29T11:42:40;1.63;;;0.93;;
22752;SDS011;11543;43.144;24.684;2023-07-29T11:45:06;1.52;;;0.75;;
22752;SDS011;11543;43.144;24.684;2023-07-29T11:47:32;1.38;;;0.90;;
22752;SDS011;11543;43.144;24.684;2023-07-29T11:50:05;1.15;;;0.85;;
22752;SDS011;11543;43.144;24.684;2023-07-29T11:52:34;1.67;;;0.70;;
22752;SDS011;11543;43.144;24.684;2023-07-29T11:55:01;2.05;;;0.70;;
22752;SDS011;11543;43.144;24.684;2023-07-29T11:57:28;3.05;;;0.82;;
22752;SDS011;11543;43.144;24.684;2023-07-29T11:59:55;1.38;;;0.95;;
22752;SDS011;11543;43.144;24.684;2023-07-29T12:02:20;0.95;;;0.65;;
22752;SDS011;11543;43.144;24.684;2023-07-29T12:04:48;1.85;;;0.85;;
22752;SDS011;11543;43.144;24.684;2023-07-29T12:07:14;1.25;;;0.85;;
22752;SDS011;11543;43.144;24.684;2023-07-29T12:09:42;2.03;;;1.10;;
22752;SDS011;11543;43.144;24.684;2023-07-29T12:12:08;1.92;;;0.90;;
22752;SDS011;11543;43.144;24.684;2023-07-29T12:14:34;5.85;;;0.90;;
22752;SDS011;11543;43.144;24.684;2023-07-29T12:17:00;1.45;;;0.85;;
22752;SDS011;11543;43.144;24.684;2023-07-29T12:19:31;1.55;;;0.80;;
22752;SDS011;11543;43.144;24.684;2023-07-29T12:21:59;2.70;;;0.98;;
22752;SDS011;11543;43.144;24.684;2023-07-29T12:24:27;1.67;;;1.00;;
22752;SDS011;11543;43.144;24.684;2023-07-29T12:26:55;1.85;;;0.98;;
22752;SDS011;11543;43.144;24.684;2023-07-29T12:29:22;1.27;;;0.80;;
22752;SDS011;11543;43.144;24.684;2023-07-29T12:31:48;1.48;;;0.70;;
22752;SDS011;11543;43.144;24.684;2023-07-29T12:34:20;1.88;;;0.77;;
22752;SDS011;11543;43.144;24.684;2023-07-29T12:36:47;3.05;;;1.20;;
22752;SDS011;11543;43.144;24.684;2023-07-29T12:39:17;1.67;;;1.00;;
22752;SDS011;11543;43.144;24.684;2023-07-29T12:41:46;1.40;;;0.95;;
22752;SDS011;11543;43.144;24.684;2023-07-29T12:44:15;0.83;;;0.77;;
22752;SDS011;11543;43.144;24.684;2023-07-29T12:46:41;1.15;;;0.73;;
22752;SDS011;11543;43.144;24.684;2023-07-29T12:49:07;1.70;;;0.90;;
22752;SDS011;11543;43.144;24.684;2023-07-29T12:51:32;2.00;;;1.00;;
22752;SDS011;11543;43.144;24.684;2023-07-29T12:53:58;1.67;;;1.00;;
22752;SDS011;11543;43.144;24.684;2023-07-29T12:56:24;1.00;;;0.80;;
22752;SDS011;11543;43.144;24.684;2023-07-29T12:58:49;2.50;;;1.00;;
22752;SDS011;11543;43.144;24.684;2023-07-29T13:01:15;1.67;;;0.88;;
22752;SDS011;11543;43.144;24.684;2023-07-29T13:03:44;3.58;;;0.90;;
22752;SDS011;11543;43.144;24.684;2023-07-29T13:06:09;1.60;;;0.80;;
22752;SDS011;11543;43.144;24.684;2023-07-29T13:08:36;2.75;;;0.90;;
22752;SDS011;11543;43.144;24.684;2023-07-29T13:11:02;1.75;;;0.90;;
22752;SDS011;11543;43.144;24.684;2023-07-29T13:13:29;1.65;;;0.70;;
22752;SDS011;11543;43.144;24.684;2023-07-29T13:15:55;7.45;;;1.38;;
22752;SDS011;11543;43.144;24.684;2023-07-29T13:18:21;3.15;;;0.90;;
22752;SDS011;11543;43.144;24.684;2023-07-29T13:20:47;2.17;;;0.90;;
22752;SDS011;11543;43.144;24.684;2023-07-29T13:23:15;14.82;;;1.30;;
22752;SDS011;11543;43.144;24.684;2023-07-29T13:25:41;3.40;;;1.15;;
22752;SDS011;11543;43.144;24.684;2023-07-29T13:28:09;1.58;;;1.10;;
22752;SDS011;11543;43.144;24.684;2023-07-29T13:30:40;2.75;;;1.00;;
22752;SDS011;11543;43.144;24.684;2023-07-29T13:33:06;2.22;;;1.30;;
22752;SDS011;11543;43.144;24.684;2023-07-29T13:35:37;1.55;;;0.82;;
22752;SDS011;11543;43.144;24.684;2023-07-29T13:38:03;2.35;;;1.10;;
22752;SDS011;11543;43.144;24.684;2023-07-29T13:40:28;2.83;;;1.00;;
22752;SDS011;11543;43.144;24.684;2023-07-29T13:42:57;2.58;;;0.95;;
22752;SDS011;11543;43.144;24.684;2023-07-29T13:45:23;2.15;;;1.20;;
22752;SDS011;11543;43.144;24.684;2023-07-29T13:47:49;4.28;;;1.30;;
22752;SDS011;11543;43.144;24.684;2023-07-29T13:50:16;2.53;;;1.20;;
22752;SDS011;11543;43.144;24.684;2023-07-29T13:52:42;1.50;;;1.13;;
22752;SDS011;11543;43.144;24.684;2023-07-29T13:55:08;3.90;;;1.45;;
22752;SDS011;11543;43.144;24.684;2023-07-29T13:57:35;2.40;;;1.00;;
22752;SDS011;11543;43.144;24.684;2023-07-29T14:00:00;4.47;;;1.25;;
22752;SDS011;11543;43.144;24.684;2023-07-29T14:02:26;2.42;;;1.27;;
22752;SDS011;11543;43.144;24.684;2023-07-29T14:04:52;1.52;;;1.10;;
22752;SDS011;11543;43.144;24.684;2023-07-29T14:07:18;3.15;;;1.10;;
22752;SDS011;11543;43.144;24.684;2023-07-29T14:09:43;2.03;;;1.27;;
22752;SDS011;11543;43.144;24.684;2023-07-29T14:12:09;1.83;;;1.17;;
22752;SDS011;11543;43.144;24.684;2023-07-29T14:14:37;2.28;;;1.27;;
22752;SDS011;11543;43.144;24.684;2023-07-29T14:17:03;1.70;;;1.27;;
22752;SDS011;11543;43.144;24.684;2023-07-29T14:19:29;2.42;;;1.48;;
22752;SDS011;11543;43.144;24.684;2023-07-29T14:21:56;4.25;;;1.40;;
22752;SDS011;11543;43.144;24.684;2023-07-29T14:24:21;2.05;;;1.05;;
22752;SDS011;11543;43.144;24.684;2023-07-29T14:26:47;3.45;;;1.20;;
22752;SDS011;11543;43.144;24.684;2023-07-29T14:29:13;2.60;;;1.30;;
22752;SDS011;11543;43.144;24.684;2023-07-29T14:31:39;4.18;;;1.50;;
22752;SDS011;11543;43.144;24.684;2023-07-29T14:34:04;2.33;;;1.50;;
22752;SDS011;11543;43.144;24.684;2023-07-29T14:36:30;5.20;;;1.75;;
22752;SDS011;11543;43.144;24.684;2023-07-29T14:38:55;2.70;;;1.40;;
22752;SDS011;11543;43.144;24.684;2023-07-29T14:41:21;2.53;;;1.45;;
22752;SDS011;11543;43.144;24.684;2023-07-29T14:43:46;2.97;;;1.40;;
22752;SDS011;11543;43.144;24.684;2023-07-29T14:46:12;2.33;;;1.50;;